createdAt,value
2018-07-30T00:00:43.365Z,99225.94
2018-07-30T00:03:14.374Z,99229.78
2018-07-30T00:05:44.994Z,99224.34
2018-07-30T00:08:15.981Z,99226.12
2018-07-30T00:10:46.601Z,99226.15
2018-07-30T00:13:17.340Z,99215.83
2018-07-30T00:15:47.918Z,99211.45
2018-07-30T00:18:18.736Z,99211.64
2018-07-30T00:20:49.437Z,99206.98
2018-07-30T00:23:20.055Z,99212.66
2018-07-30T00:25:50.653Z,99210.89
2018-07-30T00:28:21.550Z,99205.40
2018-07-30T00:30:52.277Z,99203.80
2018-07-30T00:33:23.153Z,99199.97
2018-07-30T00:35:53.842Z,99205.44
2018-07-30T00:38:24.505Z,99195.02
2018-07-30T00:40:55.212Z,99196.38
2018-07-30T00:43:26.786Z,99199.15
2018-07-30T00:45:57.672Z,99198.91
2018-07-30T00:48:28.553Z,99196.93
2018-07-30T00:50:59.048Z,99189.95
2018-07-30T00:53:29.660Z,99187.65
2018-07-30T00:56:00.181Z,99194.39
2018-07-30T00:58:30.993Z,99195.13
2018-07-30T01:01:01.564Z,99190.31
2018-07-30T01:03:32.290Z,99190.41
2018-07-30T01:06:02.838Z,99193.61
2018-07-30T01:08:33.474Z,99183.57
2018-07-30T01:11:04.156Z,99182.38
2018-07-30T01:13:34.987Z,99178.65
2018-07-30T01:16:05.620Z,99178.13
2018-07-30T01:18:36.467Z,99169.35
2018-07-30T01:21:06.860Z,99170.08
2018-07-30T01:23:37.756Z,99174.42
2018-07-30T01:26:13.253Z,99177.08
2018-07-30T01:28:43.960Z,99179.48
2018-07-30T01:31:14.528Z,99178.10
2018-07-30T01:33:45.686Z,99173.71
2018-07-30T01:36:16.414Z,99171.39
2018-07-30T01:38:47.197Z,99167.77
2018-07-30T01:41:18.013Z,99171.65
2018-07-30T01:43:48.721Z,99170.59
2018-07-30T01:46:19.370Z,99176.59
2018-07-30T01:48:50.052Z,99168.38
2018-07-30T01:51:20.735Z,99174.27
2018-07-30T01:53:51.354Z,99171.39
2018-07-30T01:56:21.937Z,99170.58
2018-07-30T01:58:52.461Z,99171.34
2018-07-30T02:01:23.316Z,99167.48
2018-07-30T02:03:54.457Z,99173.97
2018-07-30T02:06:25.193Z,99171.65
2018-07-30T02:08:55.825Z,99162.44
2018-07-30T02:11:26.445Z,99166.53
2018-07-30T02:13:57.232Z,99172.97
2018-07-30T02:16:27.820Z,99177.13
2018-07-30T02:18:58.580Z,99166.59
2018-07-30T02:21:29.349Z,99169.03
2018-07-30T02:23:59.615Z,99167.50
2018-07-30T02:26:30.214Z,99172.44
2018-07-30T02:29:01.338Z,99170.05
2018-07-30T02:31:31.872Z,99164.44
2018-07-30T02:34:02.440Z,99169.87
2018-07-30T02:36:33.206Z,99166.61
2018-07-30T02:39:04.056Z,99165.17
2018-07-30T02:41:34.661Z,99169.25
2018-07-30T02:44:05.279Z,99180.30
2018-07-30T02:46:35.963Z,99181.73
2018-07-30T02:49:07.041Z,99186.19
2018-07-30T02:51:37.646Z,99187.58
2018-07-30T02:54:08.729Z,99191.38
2018-07-30T02:56:39.344Z,99198.43
2018-07-30T02:59:10.136Z,99202.55
2018-07-30T03:01:40.818Z,99193.27
2018-07-30T03:04:11.758Z,99200.52
2018-07-30T03:06:42.404Z,99207.56
2018-07-30T03:09:13.110Z,99202.39
2018-07-30T03:11:43.144Z,99206.30
2018-07-30T03:14:13.953Z,99207.84
2018-07-30T03:16:44.647Z,99209.17
2018-07-30T03:19:15.526Z,99215.58
2018-07-30T03:21:46.278Z,99213.47
2018-07-30T03:24:17.437Z,99214.17
2018-07-30T03:26:48.084Z,99216.50
2018-07-30T03:29:18.925Z,99212.58
2018-07-30T03:31:49.601Z,99220.48
2018-07-30T03:34:20.481Z,99220.31
2018-07-30T03:36:51.140Z,99229.47
2018-07-30T03:39:21.973Z,99234.09
2018-07-30T03:41:52.595Z,99236.15
2018-07-30T03:44:23.697Z,99231.28
2018-07-30T03:46:54.372Z,99226.84
2018-07-30T03:49:25.307Z,99221.84
2018-07-30T03:51:55.817Z,99211.79
2018-07-30T03:54:26.480Z,99211.11
2018-07-30T03:56:57.136Z,99222.63
2018-07-30T03:59:27.976Z,99222.41
2018-07-30T04:01:58.710Z,99223.44
2018-07-30T04:04:29.593Z,99222.91
2018-07-30T04:07:00.190Z,99233.42
2018-07-30T04:09:31.012Z,99230.86
2018-07-30T04:12:01.694Z,99220.34
2018-07-30T04:14:32.356Z,99221.80
2018-07-30T04:17:02.736Z,99228.24
2018-07-30T04:19:33.532Z,99231.05
2018-07-30T04:22:04.137Z,99226.89
2018-07-30T04:24:34.773Z,99230.55
2018-07-30T04:27:05.332Z,99235.58
2018-07-30T04:29:36.104Z,99242.17
2018-07-30T04:32:06.892Z,99235.34
2018-07-30T04:34:37.524Z,99229.36
2018-07-30T04:37:08.198Z,99232.91
2018-07-30T04:39:39.181Z,99234.09
2018-07-30T04:42:09.797Z,99225.91
2018-07-30T04:44:40.566Z,99233.17
2018-07-30T04:47:11.370Z,99235.88
2018-07-30T04:49:41.912Z,99235.18
2018-07-30T04:52:12.460Z,99239.80
2018-07-30T04:54:43.126Z,99231.58
2018-07-30T04:57:13.781Z,99229.06
2018-07-30T04:59:44.412Z,99228.02
2018-07-30T05:02:14.992Z,99227.75
2018-07-30T05:04:45.098Z,99228.18
2018-07-30T05:07:15.972Z,99227.65
2018-07-30T05:09:46.596Z,99220.90
2018-07-30T05:12:17.305Z,99222.14
2018-07-30T05:14:47.965Z,99215.32
2018-07-30T05:17:18.788Z,99215.54
2018-07-30T05:19:49.753Z,99215.56
2018-07-30T05:22:20.461Z,99219.56
2018-07-30T05:24:51.253Z,99209.63
2018-07-30T05:27:22.173Z,99204.77
2018-07-30T05:29:52.893Z,99214.66
2018-07-30T05:32:23.944Z,99219.62
2018-07-30T05:34:54.632Z,99211.02
2018-07-30T05:37:25.341Z,99216.14
2018-07-30T05:39:56.065Z,99222.08
2018-07-30T05:42:27.261Z,99227.13
2018-07-30T05:44:57.885Z,99232.11
2018-07-30T05:47:28.869Z,99218.40
2018-07-30T05:49:59.520Z,99230.38
2018-07-30T05:52:30.702Z,99231.77
2018-07-30T05:55:01.387Z,99234.23
2018-07-30T05:57:31.967Z,99237.39
2018-07-30T06:00:02.478Z,99230.22
2018-07-30T06:02:34.349Z,99235.42
2018-07-30T06:05:06.599Z,99238.53
2018-07-30T06:07:36.953Z,99231.44
2018-07-30T06:10:07.985Z,99239.02
2018-07-30T06:12:38.485Z,99237.51
2018-07-30T06:15:09.385Z,99237.66
2018-07-30T06:17:39.801Z,99231.66
2018-07-30T06:20:11.898Z,99238.03
2018-07-30T06:22:42.490Z,99237.64
2018-07-30T06:25:13.235Z,99238.48
2018-07-30T06:27:44.073Z,99241.98
2018-07-30T06:30:14.649Z,99228.16
2018-07-30T06:32:45.486Z,99227.88
2018-07-30T06:35:16.181Z,99228.08
2018-07-30T06:37:46.849Z,99234.18
2018-07-30T06:40:17.257Z,99227.55
2018-07-30T06:42:48.100Z,99221.30
2018-07-30T06:45:18.692Z,99230.95
2018-07-30T06:47:49.630Z,99228.52
2018-07-30T06:50:19.877Z,99231.65
2018-07-30T06:52:50.824Z,99231.73
2018-07-30T06:55:21.430Z,99236.27
2018-07-30T06:57:52.565Z,99235.92
2018-07-30T07:00:23.196Z,99235.20
2018-07-30T07:02:53.920Z,99235.04
2018-07-30T07:05:24.560Z,99234.13
2018-07-30T07:07:56.281Z,99231.40
2018-07-30T07:10:26.792Z,99229.36
2018-07-30T07:12:57.420Z,99233.42
2018-07-30T07:15:28.037Z,99229.98
2018-07-30T07:17:58.844Z,99229.36
2018-07-30T07:20:29.542Z,99229.31
2018-07-30T07:23:00.126Z,99226.98
2018-07-30T07:25:30.840Z,99229.23
2018-07-30T07:28:01.770Z,99229.13
2018-07-30T07:30:32.458Z,99228.55
2018-07-30T07:33:03.188Z,99230.38
2018-07-30T07:35:33.689Z,99226.05
2018-07-30T07:38:04.453Z,99226.05
2018-07-30T07:40:35.137Z,99230.54
2018-07-30T07:43:05.876Z,99226.04
2018-07-30T07:45:36.569Z,99227.28
2018-07-30T07:48:07.188Z,99226.64
2018-07-30T07:50:37.940Z,99225.21
2018-07-30T07:53:08.853Z,99223.73
2018-07-30T07:55:39.437Z,99225.19
2018-07-30T07:58:10.247Z,99216.80
2018-07-30T08:00:40.993Z,99212.25
2018-07-30T08:03:11.700Z,99205.53
2018-07-30T08:05:42.223Z,99202.99
2018-07-30T08:08:13.057Z,99199.00
2018-07-30T08:10:43.689Z,99194.70
2018-07-30T08:13:14.492Z,99196.39
2018-07-30T08:15:45.197Z,99189.19
2018-07-30T08:18:15.981Z,99197.96
2018-07-30T08:20:46.402Z,99203.66
2018-07-30T08:23:16.978Z,99193.96
2018-07-30T08:25:47.625Z,99193.39
2018-07-30T08:28:18.388Z,99194.14
2018-07-30T08:30:49.047Z,99193.04
2018-07-30T08:33:19.866Z,99188.65
2018-07-30T08:35:50.514Z,99186.98
2018-07-30T08:38:21.288Z,99183.25
2018-07-30T08:40:51.928Z,99177.41
2018-07-30T08:43:22.733Z,99163.95
2018-07-30T08:45:53.443Z,99164.13
2018-07-30T08:48:24.133Z,99166.38
2018-07-30T08:50:54.761Z,99172.33
2018-07-30T08:53:25.444Z,99181.54
2018-07-30T08:55:56.095Z,99175.78
2018-07-30T08:58:26.897Z,99171.50
2018-07-30T09:00:57.238Z,99172.34
2018-07-30T09:03:27.941Z,99170.92
2018-07-30T09:05:58.254Z,99163.03
2018-07-30T09:08:28.927Z,99157.18
2018-07-30T09:10:59.270Z,99147.19
2018-07-30T09:13:30.161Z,99148.85
2018-07-30T09:16:00.816Z,99149.28
2018-07-30T09:18:31.621Z,99152.59
2018-07-30T09:21:01.893Z,99158.00
2018-07-30T09:23:32.188Z,99168.13
2018-07-30T09:26:02.541Z,99171.79
2018-07-30T09:28:32.772Z,99177.42
2018-07-30T09:31:03.597Z,99179.20
2018-07-30T09:33:34.421Z,99179.08
2018-07-30T09:36:05.226Z,99168.05
2018-07-30T09:38:35.620Z,99168.83
2018-07-30T09:41:06.148Z,99178.87
2018-07-30T09:43:36.377Z,99184.92
2018-07-30T09:46:08.134Z,99179.95
2018-07-30T09:48:38.845Z,99182.45
2018-07-30T09:51:10.523Z,99177.62
2018-07-30T09:53:41.225Z,99189.19
2018-07-30T09:56:11.712Z,99198.64
2018-07-30T09:58:42.061Z,99202.20
2018-07-30T10:01:17.545Z,99202.30
2018-07-30T10:03:47.794Z,99201.35
2018-07-30T10:06:18.181Z,99200.25
2018-07-30T10:08:48.779Z,99197.52
2018-07-30T10:11:19.577Z,99191.25
2018-07-30T10:13:49.600Z,99187.52
2018-07-30T10:16:20.369Z,99201.30
2018-07-30T10:18:51.105Z,99199.82
2018-07-30T10:21:21.781Z,99206.51
2018-07-30T10:23:52.469Z,99215.44
2018-07-30T10:26:23.481Z,99218.36
2018-07-30T10:28:54.247Z,99215.91
2018-07-30T10:31:25.153Z,99221.91
2018-07-30T10:33:55.813Z,99216.27
2018-07-30T10:36:26.643Z,99218.18
2018-07-30T10:38:57.283Z,99212.43
2018-07-30T10:41:27.873Z,99211.17
2018-07-30T10:43:58.409Z,99212.47
2018-07-30T10:46:29.071Z,99215.52
2018-07-30T10:48:59.729Z,99204.67
2018-07-30T10:51:30.315Z,99199.01
2018-07-30T10:54:01.132Z,99186.27
2018-07-30T10:56:31.822Z,99180.55
2018-07-30T10:59:02.462Z,99181.53
2018-07-30T11:01:33.438Z,99187.30
2018-07-30T11:04:04.068Z,99192.43
2018-07-30T11:06:34.596Z,99190.23
2018-07-30T11:09:07.173Z,99192.96
2018-07-30T11:11:37.840Z,99198.07
2018-07-30T11:14:08.729Z,99202.27
2018-07-30T11:16:39.640Z,99204.16
2018-07-30T11:19:10.261Z,99202.73
2018-07-30T11:21:41.112Z,99202.69
2018-07-30T11:24:11.705Z,99200.28
2018-07-30T11:26:42.476Z,99193.95
2018-07-30T11:29:13.104Z,99193.95
2018-07-30T11:31:44.109Z,99200.42
2018-07-30T11:34:14.699Z,99190.95
2018-07-30T11:36:45.467Z,99183.39
2018-07-30T11:39:16.111Z,99185.92
2018-07-30T11:41:46.848Z,99188.89
2018-07-30T11:44:17.416Z,99183.59
2018-07-30T11:46:48.138Z,99187.69
2018-07-30T11:49:18.826Z,99190.33
2018-07-30T11:51:49.509Z,99196.91
2018-07-30T11:54:20.403Z,99198.89
2018-07-30T11:56:50.918Z,99209.64
2018-07-30T11:59:21.565Z,99207.87
2018-07-30T12:01:52.297Z,99210.95
2018-07-30T12:04:23.173Z,99225.44
2018-07-30T12:06:53.860Z,99222.48
2018-07-30T12:09:24.504Z,99231.97
2018-07-30T12:11:55.338Z,99229.67
2018-07-30T12:14:25.916Z,99231.95
2018-07-30T12:16:56.637Z,99234.53
2018-07-30T12:19:27.249Z,99240.93
2018-07-30T12:21:57.849Z,99238.19
2018-07-30T12:24:28.529Z,99236.28
2018-07-30T12:26:59.152Z,99243.58
2018-07-30T12:29:29.851Z,99240.33
2018-07-30T12:32:00.699Z,99251.56
2018-07-30T12:34:31.529Z,99250.52
2018-07-30T12:37:02.209Z,99238.47
2018-07-30T12:39:32.985Z,99237.93
2018-07-30T12:42:05.113Z,99240.45
2018-07-30T12:44:35.832Z,99235.45
2018-07-30T12:47:07.288Z,99237.80
2018-07-30T12:49:37.920Z,99238.05
2018-07-30T12:52:08.594Z,99241.32
2018-07-30T12:54:39.216Z,99235.03
2018-07-30T12:57:09.685Z,99244.75
2018-07-30T12:59:40.336Z,99239.16
2018-07-30T13:02:11.262Z,99247.39
2018-07-30T13:04:41.921Z,99252.14
2018-07-30T13:07:12.800Z,99256.40
2018-07-30T13:09:43.377Z,99255.00
2018-07-30T13:12:14.180Z,99253.51
2018-07-30T13:14:44.789Z,99253.00
2018-07-30T13:17:15.658Z,99253.48
2018-07-30T13:19:46.261Z,99249.02
2018-07-30T13:22:17.045Z,99253.76
2018-07-30T13:24:47.673Z,99248.11
2018-07-30T13:27:18.810Z,99255.94
2018-07-30T13:29:49.467Z,99246.88
2018-07-30T13:32:20.380Z,99248.52
2018-07-30T13:34:51.005Z,99254.27
2018-07-30T13:37:21.913Z,99242.08
2018-07-30T13:39:52.484Z,99244.67
2018-07-30T13:42:23.220Z,99237.25
2018-07-30T13:44:53.910Z,99235.39
2018-07-30T13:47:24.709Z,99232.88
2018-07-30T13:49:55.378Z,99241.55
2018-07-30T13:52:26.069Z,99238.48
2018-07-30T13:54:56.353Z,99238.16
2018-07-30T13:57:27.105Z,99235.68
2018-07-30T13:59:57.683Z,99238.13
2018-07-30T14:02:28.345Z,99243.70
2018-07-30T14:04:59.005Z,99245.16
2018-07-30T14:07:29.918Z,99250.66
2018-07-30T14:10:00.531Z,99251.34
2018-07-30T14:12:31.270Z,99243.70
2018-07-30T14:15:01.942Z,99246.91
2018-07-30T14:17:32.685Z,99238.64
2018-07-30T14:20:03.361Z,99248.89
2018-07-30T14:22:34.039Z,99246.16
2018-07-30T14:25:04.017Z,99239.34
2018-07-30T14:27:34.762Z,99241.06
2018-07-30T14:30:06.965Z,99244.91
2018-07-30T14:32:37.540Z,99239.20
2018-07-30T14:35:08.355Z,99241.71
2018-07-30T14:37:38.896Z,99249.43
2018-07-30T14:40:12.018Z,99240.57
2018-07-30T14:42:43.244Z,99238.84
2018-07-30T14:45:13.917Z,99232.19
2018-07-30T14:47:44.745Z,99225.58
2018-07-30T14:50:15.368Z,99221.70
2018-07-30T14:52:46.185Z,99218.98
2018-07-30T14:55:16.805Z,99229.22
2018-07-30T14:57:47.576Z,99226.36
2018-07-30T15:00:18.223Z,99223.06
2018-07-30T15:02:49.068Z,99223.76
2018-07-30T15:05:21.997Z,99218.47
2018-07-30T15:07:52.991Z,99215.10
2018-07-30T15:10:23.508Z,99212.69
2018-07-30T15:12:54.501Z,99201.44
2018-07-30T15:15:25.057Z,99202.39
2018-07-30T15:17:56.077Z,99199.47
2018-07-30T15:20:26.761Z,99197.75
2018-07-30T15:22:57.452Z,99195.77
2018-07-30T15:25:28.221Z,99194.78
2018-07-30T15:27:59.767Z,99194.66
2018-07-30T15:30:30.541Z,99188.48
2018-07-30T15:33:01.537Z,99187.82
2018-07-30T15:35:32.168Z,99194.55
2018-07-30T15:38:03.137Z,99196.97
2018-07-30T15:40:33.750Z,99202.87
2018-07-30T15:43:04.500Z,99197.45
2018-07-30T15:45:35.257Z,99192.84
2018-07-30T15:48:06.049Z,99196.67
2018-07-30T15:50:36.729Z,99195.36
2018-07-30T15:53:07.586Z,99202.69
2018-07-30T15:55:38.304Z,99203.90
2018-07-30T15:58:09.174Z,99200.72
2018-07-30T16:00:39.704Z,99202.66
2018-07-30T16:03:10.508Z,99202.83
2018-07-30T16:05:41.195Z,99208.30
2018-07-30T16:08:11.876Z,99210.38
2018-07-30T16:10:42.441Z,99209.31
2018-07-30T16:13:13.128Z,99212.27
2018-07-30T16:15:43.796Z,99215.34
2018-07-30T16:18:14.686Z,99208.30
2018-07-30T16:20:45.416Z,99197.22
2018-07-30T16:23:16.337Z,99208.91
2018-07-30T16:25:47.149Z,99219.79
2018-07-30T16:28:17.717Z,99221.23
2018-07-30T16:30:48.498Z,99214.97
2018-07-30T16:33:19.634Z,99217.55
2018-07-30T16:35:50.381Z,99235.70
2018-07-30T16:38:21.301Z,99244.23
2018-07-30T16:40:52.009Z,99254.14
2018-07-30T16:43:22.661Z,99251.86
2018-07-30T16:45:53.367Z,99247.09
2018-07-30T16:48:24.237Z,99245.30
2018-07-30T16:50:54.938Z,99244.98
2018-07-30T16:53:25.769Z,99242.78
2018-07-30T16:55:56.241Z,99252.94
2018-07-30T16:58:27.199Z,99256.16
2018-07-30T17:00:57.893Z,99253.75
2018-07-30T17:03:28.715Z,99254.59
2018-07-30T17:05:59.482Z,99251.22
2018-07-30T17:08:30.256Z,99257.88
2018-07-30T17:11:00.810Z,99260.94
2018-07-30T17:13:31.888Z,99265.43
2018-07-30T17:16:02.528Z,99262.67
2018-07-30T17:18:33.593Z,99269.48
2018-07-30T17:21:04.181Z,99268.92
2018-07-30T17:23:35.009Z,99278.61
2018-07-30T17:26:05.569Z,99283.20
2018-07-30T17:28:36.329Z,99282.44
2018-07-30T17:31:06.932Z,99284.58
2018-07-30T17:33:38.037Z,99281.55
2018-07-30T17:36:08.651Z,99281.62
2018-07-30T17:38:39.221Z,99282.13
2018-07-30T17:41:09.981Z,99284.39
2018-07-30T17:43:40.835Z,99292.36
2018-07-30T17:46:11.642Z,99293.50
2018-07-30T17:48:42.369Z,99302.61
2018-07-30T17:51:13.014Z,99299.00
2018-07-30T17:53:43.397Z,99300.16
2018-07-30T17:56:14.157Z,99301.38
2018-07-30T17:58:45.146Z,99305.83
2018-07-30T18:01:15.786Z,99306.31
2018-07-30T18:03:46.521Z,99308.47
2018-07-30T18:06:17.036Z,99298.60
2018-07-30T18:08:47.904Z,99307.40
2018-07-30T18:11:18.524Z,99299.13
2018-07-30T18:13:49.264Z,99296.33
2018-07-30T18:16:19.920Z,99293.30
2018-07-30T18:18:50.608Z,99298.36
2018-07-30T18:21:21.080Z,99301.70
2018-07-30T18:23:52.074Z,99298.87
2018-07-30T18:26:22.716Z,99297.98
2018-07-30T18:28:53.980Z,99301.28
2018-07-30T18:31:24.598Z,99309.48
2018-07-30T18:33:55.336Z,99312.98
2018-07-30T18:36:25.961Z,99317.56
2018-07-30T18:38:56.569Z,99308.72
2018-07-30T18:41:27.158Z,99309.70
2018-07-30T18:43:57.962Z,99307.13
2018-07-30T18:46:28.681Z,99313.36
2018-07-30T18:48:59.266Z,99318.41
2018-07-30T18:51:29.938Z,99329.83
2018-07-30T18:54:00.777Z,99330.09
2018-07-30T18:56:31.430Z,99332.44
2018-07-30T18:59:02.314Z,99335.89
2018-07-30T19:01:33.025Z,99339.59
2018-07-30T19:04:03.837Z,99334.93
2018-07-30T19:06:34.597Z,99334.80
2018-07-30T19:09:06.822Z,99336.80
2018-07-30T19:11:37.448Z,99341.04
2018-07-30T19:14:08.500Z,99343.47
2018-07-30T19:16:38.960Z,99349.11
2018-07-30T19:19:09.745Z,99345.19
2018-07-30T19:21:40.483Z,99348.83
2018-07-30T19:24:11.292Z,99343.06
2018-07-30T19:26:42.010Z,99339.69
2018-07-30T19:29:12.930Z,99343.19
2018-07-30T19:31:43.029Z,99336.42
2018-07-30T19:34:13.740Z,99342.44
2018-07-30T19:36:44.416Z,99345.48
2018-07-30T19:39:15.113Z,99342.66
2018-07-30T19:41:45.780Z,99348.81
2018-07-30T19:44:16.673Z,99351.05
2018-07-30T19:46:47.348Z,99357.17
2018-07-30T19:49:18.501Z,99352.72
2018-07-30T19:51:49.131Z,99355.14
2018-07-30T19:54:19.724Z,99356.83
2018-07-30T19:56:50.385Z,99358.53
2018-07-30T19:59:21.273Z,99352.85
2018-07-30T20:01:52.013Z,99363.25
2018-07-30T20:04:22.736Z,99365.77
2018-07-30T20:06:53.431Z,99366.29
2018-07-30T20:09:24.214Z,99372.92
2018-07-30T20:11:54.791Z,99381.66
2018-07-30T20:14:25.453Z,99386.05
2018-07-30T20:16:56.222Z,99388.56
2018-07-30T20:19:27.173Z,99396.30
2018-07-30T20:21:57.730Z,99393.30
2018-07-30T20:24:28.618Z,99396.58
2018-07-30T20:26:59.201Z,99398.52
2018-07-30T20:29:30.358Z,99398.95
2018-07-30T20:32:01.024Z,99405.05
2018-07-30T20:34:31.762Z,99405.72
2018-07-30T20:37:02.515Z,99409.69
2018-07-30T20:39:33.186Z,99413.14
2018-07-30T20:42:03.714Z,99413.70
2018-07-30T20:44:34.380Z,99417.73
2018-07-30T20:47:05.109Z,99419.23
2018-07-30T20:49:35.797Z,99423.94
2018-07-30T20:52:06.441Z,99426.73
2018-07-30T20:54:38.189Z,99430.83
2018-07-30T20:57:08.769Z,99430.09
2018-07-30T20:59:39.504Z,99428.30
2018-07-30T21:02:10.349Z,99438.19
2018-07-30T21:04:41.100Z,99436.63
2018-07-30T21:07:11.690Z,99437.84
2018-07-30T21:09:42.164Z,99435.57
2018-07-30T21:12:12.831Z,99437.69
2018-07-30T21:14:43.749Z,99439.58
2018-07-30T21:17:14.489Z,99440.23
2018-07-30T21:19:45.414Z,99434.55
2018-07-30T21:22:16.065Z,99437.73
2018-07-30T21:24:46.341Z,99433.57
2018-07-30T21:27:17.054Z,99430.13
2018-07-30T21:29:47.873Z,99432.38
2018-07-30T21:32:18.568Z,99430.09
2018-07-30T21:34:49.352Z,99425.89
2018-07-30T21:37:19.905Z,99431.83
2018-07-30T21:39:51.412Z,99426.97
2018-07-30T21:42:22.079Z,99432.97
2018-07-30T21:44:52.924Z,99420.41
2018-07-30T21:47:23.496Z,99423.30
2018-07-30T21:49:54.156Z,99419.14
2018-07-30T21:52:24.740Z,99412.42
2018-07-30T21:54:55.685Z,99408.80
2018-07-30T21:57:26.425Z,99410.23
2018-07-30T21:59:57.329Z,99405.81
2018-07-30T22:02:28.016Z,99409.19
2018-07-30T22:04:58.681Z,99404.80
2018-07-30T22:07:29.352Z,99405.42
2018-07-30T22:10:00.351Z,99398.63
2018-07-30T22:12:30.989Z,99398.15
2018-07-30T22:15:01.978Z,99394.86
2018-07-30T22:17:32.252Z,99394.20
2018-07-30T22:20:03.061Z,99393.48
2018-07-30T22:22:33.748Z,99399.51
2018-07-30T22:25:04.693Z,99392.58
2018-07-30T22:27:35.320Z,99393.75
2018-07-30T22:30:08.415Z,99389.16
2018-07-30T22:32:39.039Z,99390.24
2018-07-30T22:35:11.088Z,99388.50
2018-07-30T22:37:41.690Z,99387.75
2018-07-30T22:40:12.441Z,99386.87
2018-07-30T22:42:43.176Z,99396.90
2018-07-30T22:45:13.789Z,99402.42
2018-07-30T22:47:44.497Z,99403.54
2018-07-30T22:50:15.412Z,99403.45
2018-07-30T22:52:46.194Z,99398.84
2018-07-30T22:55:16.964Z,99397.95
2018-07-30T22:57:47.168Z,99387.02
2018-07-30T23:00:17.767Z,99383.44
2018-07-30T23:02:48.452Z,99382.63
2018-07-30T23:05:20.904Z,99386.63
2018-07-30T23:07:51.765Z,99383.83
2018-07-30T23:10:22.752Z,99388.25
2018-07-30T23:12:53.289Z,99383.01
2018-07-30T23:15:24.021Z,99381.17
2018-07-30T23:17:54.753Z,99385.38
2018-07-30T23:20:25.592Z,99387.95
2018-07-30T23:22:56.382Z,99385.53
2018-07-30T23:25:27.184Z,99381.91
2018-07-30T23:27:57.708Z,99381.92
2018-07-30T23:30:28.373Z,99388.11
2018-07-30T23:32:58.849Z,99384.39
2018-07-30T23:35:30.381Z,99382.37
2018-07-30T23:38:00.978Z,99381.13
2018-07-30T23:40:31.672Z,99382.51
2018-07-30T23:43:02.340Z,99374.80
2018-07-30T23:45:33.172Z,99381.33
2018-07-30T23:48:03.816Z,99380.08
2018-07-30T23:50:34.540Z,99381.48
2018-07-30T23:53:05.360Z,99382.18
2018-07-30T23:55:36.096Z,99375.50
2018-07-30T23:58:06.833Z,99374.52
